Time;durP1;ratioP1;P1;durP2;ratioP2;P2;SDS_P1;SDS_P2;PMS_P1;PMS_P2;Temp;Humidity;BMP_temperature;BMP_pressure;BME280_temperature;BME280_humidity;BME280_pressure;Samples;Min_cycle;Max_cycle;Signal;HPM_P1;HPM_P2
2022/01/11 00:01:14;;;;;;;1999.90;999.90;;;;;;;0.06;60.95;102685.25;5038305;22;99630;-71
2022/01/11 00:03:44;;;;;;;1999.90;999.90;;;;;;;0.09;60.75;102685.56;4989823;28;101269;-74
2022/01/11 00:06:25;;;;;;;1999.90;999.90;;;;;;;0.15;60.94;102678.28;4995366;28;98362;-74
2022/01/11 00:08:58;;;;;;;1999.90;999.90;;;;;;;0.14;60.36;102679.06;4996382;28;97535;-74
2022/01/11 00:11:27;;;;;;;1999.90;999.90;;;;;;;0.09;60.38;102675.09;4995030;28;101038;-74
2022/01/11 00:13:55;;;;;;;1999.90;999.90;;;;;;;0.10;60.74;102687.38;4986524;28;99366;-75
2022/01/11 00:16:26;;;;;;;1999.90;999.90;;;;;;;0.11;60.74;102681.41;4987703;28;97854;-74
2022/01/11 00:18:54;;;;;;;1999.90;999.90;;;;;;;0.09;60.78;102685.56;4988335;28;98211;-74
2022/01/11 00:21:25;;;;;;;1999.90;999.90;;;;;;;0.09;60.62;102690.81;4990849;28;99189;-74
2022/01/11 00:26:38;;;;;;;1999.90;999.90;;;;;;;0.07;60.80;102689.75;4989974;28;97363;-74
2022/01/11 00:29:06;;;;;;;1999.90;999.90;;;;;;;0.06;61.06;102695.72;4973164;28;97228;-73
2022/01/11 00:31:38;;;;;;;1999.90;999.90;;;;;;;0.09;60.69;102698.66;4990535;28;97565;-74
2022/01/11 00:34:07;;;;;;;1999.90;999.90;;;;;;;0.11;60.73;102706.66;4991832;28;98916;-73
2022/01/11 00:36:42;;;;;;;1999.90;999.90;;;;;;;0.12;60.78;102701.53;4991431;28;97028;-73
2022/01/11 00:39:10;;;;;;;1999.90;999.90;;;;;;;0.13;60.45;102702.47;4992351;28;96896;-74
2022/01/11 00:41:39;;;;;;;1999.90;999.90;;;;;;;0.14;60.62;102700.00;4991363;28;98744;-74
2022/01/11 00:44:08;;;;;;;1999.90;999.90;;;;;;;0.11;60.93;102701.41;5009456;28;98316;-73
2022/01/11 00:46:41;;;;;;;1999.90;999.90;;;;;;;0.11;60.67;102709.25;5007783;28;99599;-75
2022/01/11 00:49:09;;;;;;;1999.90;999.90;;;;;;;0.10;60.36;102707.44;4981441;28;98636;-74
2022/01/11 00:51:37;;;;;;;1999.90;999.90;;;;;;;0.11;60.68;102704.97;4993777;28;97729;-74
2022/01/11 00:54:05;;;;;;;1999.90;999.90;;;;;;;0.10;60.92;102717.91;4998875;28;98658;-73
2022/01/11 00:56:32;;;;;;;1999.90;999.90;;;;;;;0.11;60.45;102720.66;4996402;28;96722;-73
2022/01/11 00:59:00;;;;;;;1999.90;999.90;;;;;;;0.11;60.25;102714.50;4996453;28;97200;-73
2022/01/11 01:01:34;;;;;;;1999.90;999.90;;;;;;;0.10;60.24;102712.66;5010204;28;98808;-72
2022/01/11 01:04:04;;;;;;;1999.90;999.90;;;;;;;0.08;60.58;102720.34;4988883;28;99226;-73
2022/01/11 01:06:32;;;;;;;1999.90;999.90;;;;;;;0.08;60.51;102714.22;4994538;28;99665;-72
2022/01/11 01:09:00;;;;;;;1999.90;999.90;;;;;;;0.10;60.37;102718.81;4995658;28;98530;-74
2022/01/11 01:11:32;;;;;;;1999.90;999.90;;;;;;;0.09;60.09;102716.97;4992647;28;98980;-73
2022/01/11 01:14:01;;;;;;;1999.90;999.90;;;;;;;0.08;60.07;102715.13;4991328;28;96744;-74
2022/01/11 01:16:29;;;;;;;1999.90;999.90;;;;;;;0.07;60.43;102712.34;4988012;28;98498;-73
2022/01/11 01:19:08;;;;;;;1999.90;999.90;;;;;;;0.07;60.58;102723.75;4977164;28;99217;-74
2022/01/11 01:21:38;;;;;;;1999.90;999.90;;;;;;;-0.24;61.64;102729.50;4991167;28;97912;-73
2022/01/11 01:24:07;;;;;;;1999.90;999.90;;;;;;;-0.30;61.80;102725.38;5009280;28;100742;-72
2022/01/11 01:26:38;;;;;;;1999.90;999.90;;;;;;;-0.33;61.56;102732.91;4993241;28;98152;-74
2022/01/11 01:29:06;;;;;;;1999.90;999.90;;;;;;;-0.33;61.82;102732.91;4994561;28;97598;-74
2022/01/11 01:31:34;;;;;;;1999.90;999.90;;;;;;;-0.36;61.83;102738.78;4990492;28;99720;-72
2022/01/11 01:34:05;;;;;;;1999.90;999.90;;;;;;;-0.36;61.78;102738.78;4995007;28;99867;-73
2022/01/11 01:36:34;;;;;;;1999.90;999.90;;;;;;;-0.38;61.94;102740.34;4994194;28;97073;-72
2022/01/11 01:39:02;;;;;;;1999.90;999.90;;;;;;;-0.37;62.07;102742.16;5011854;28;99410;-72
2022/01/11 01:41:29;;;;;;;1999.90;999.90;;;;;;;-0.37;61.72;102742.16;4993437;28;97727;-73
2022/01/11 01:44:00;;;;;;;1999.90;999.90;;;;;;;-0.35;62.21;102755.38;4976499;28;99261;-72
2022/01/11 01:46:28;;;;;;;1999.90;999.90;;;;;;;-0.34;62.23;102758.16;5010214;28;97696;-72
2022/01/11 01:48:59;;;;;;;1999.90;999.90;;;;;;;-0.34;61.81;102760.78;4997468;28;98021;-72
2022/01/11 01:51:27;;;;;;;1999.90;999.90;;;;;;;-0.33;61.68;102756.44;5008490;28;98932;-72
2022/01/11 01:53:56;;;;;;;1999.90;999.90;;;;;;;-0.34;61.91;102755.56;5008580;28;97767;-73
2022/01/11 01:56:25;;;;;;;1999.90;999.90;;;;;;;-0.32;61.91;102756.59;5004760;28;97092;-72
2022/01/11 01:58:52;;;;;;;1999.90;999.90;;;;;;;-0.30;61.76;102760.28;4975240;28;96885;-73
2022/01/11 02:01:21;;;;;;;1999.90;999.90;;;;;;;-0.28;61.60;102769.19;4990188;28;101309;-73
2022/01/11 02:03:49;;;;;;;1999.90;999.90;;;;;;;-0.32;61.69;102764.44;4990548;28;97830;-73
2022/01/11 02:06:18;;;;;;;1999.90;999.90;;;;;;;-0.33;61.59;102767.84;4992044;28;98456;-72
2022/01/11 02:08:48;;;;;;;1999.90;999.90;;;;;;;-0.33;61.58;102764.31;4996726;28;97687;-73
2022/01/11 02:11:20;;;;;;;1999.90;999.90;;;;;;;-0.36;61.58;102764.94;4991793;28;100250;-73
2022/01/11 02:13:49;;;;;;;1999.90;999.90;;;;;;;-0.37;61.55;102768.31;4971041;28;99216;-74
2022/01/11 02:16:21;;;;;;;1999.90;999.90;;;;;;;-0.38;61.43;102758.66;5005970;28;97790;-74
2022/01/11 02:18:52;;;;;;;1999.90;999.90;;;;;;;-0.42;60.96;102766.03;5006012;28;96867;-74
2022/01/11 02:21:22;;;;;;;1999.90;999.90;;;;;;;-0.46;61.42;102762.19;4976894;28;99285;-74
2022/01/11 02:23:50;;;;;;;1999.90;999.90;;;;;;;-0.51;61.21;102765.16;4972727;28;99956;-74
2022/01/11 02:26:22;;;;;;;1999.90;999.90;;;;;;;-0.52;61.30;102756.38;5005332;28;98999;-73
2022/01/11 02:28:51;;;;;;;1999.90;999.90;;;;;;;-0.55;61.09;102756.09;4998367;28;98970;-73
2022/01/11 02:31:20;;;;;;;1999.90;999.90;;;;;;;-0.56;61.38;102756.88;4969064;28;100196;-74
2022/01/11 02:33:54;;;;;;;1999.90;999.90;;;;;;;-0.53;61.29;102758.84;4985124;28;97710;-73
2022/01/11 02:36:40;;;;;;;1999.90;999.90;;;;;;;-0.64;61.28;102759.50;4984628;28;96908;-74
2022/01/11 02:39:18;;;;;;;1999.90;999.90;;;;;;;-0.58;61.11;102757.47;4971160;28;96867;-73
2022/01/11 02:41:51;;;;;;;1999.90;999.90;;;;;;;-0.63;61.54;102756.13;4970168;28;98067;-74
2022/01/11 02:44:24;;;;;;;1999.90;999.90;;;;;;;-0.54;61.09;102768.41;4984837;28;97545;-72
2022/01/11 02:46:51;;;;;;;1999.90;999.90;;;;;;;-0.54;61.15;102763.19;4988321;28;96913;-73
2022/01/11 02:49:22;;;;;;;1999.90;999.90;;;;;;;-0.55;60.98;102770.84;4987437;28;97196;-73
2022/01/11 02:51:57;;;;;;;1999.90;999.90;;;;;;;-0.56;61.06;102763.78;4969903;28;101138;-73
2022/01/11 02:54:24;;;;;;;1999.90;999.90;;;;;;;-0.56;60.94;102769.03;4984280;28;98823;-73
2022/01/11 02:57:03;;;;;;;1999.90;999.90;;;;;;;-0.78;61.15;102771.25;4983303;28;96972;-72
2022/01/11 02:59:31;;;;;;;1999.90;999.90;;;;;;;-0.80;61.44;102775.38;4985288;28;96839;-71
2022/01/11 03:01:59;;;;;;;1999.90;999.90;;;;;;;-0.85;61.13;102771.41;4985614;28;98753;-73
2022/01/11 03:04:31;;;;;;;1999.90;999.90;;;;;;;-0.92;61.23;102769.88;4982226;28;99273;-72
2022/01/11 03:07:01;;;;;;;1999.90;999.90;;;;;;;-0.92;61.76;102782.94;4968681;28;97228;-72
2022/01/11 03:09:48;;;;;;;1999.90;999.90;;;;;;;-0.92;61.48;102784.63;4976673;28;97314;-73
2022/01/11 03:12:16;;;;;;;1999.90;999.90;;;;;;;-0.89;61.62;102790.16;4969928;28;99013;-74
2022/01/11 03:14:45;;;;;;;1999.90;999.90;;;;;;;-0.89;61.66;102783.25;4966718;28;99987;-73
2022/01/11 03:17:13;;;;;;;1999.90;999.90;;;;;;;-0.89;61.47;102782.31;4966080;28;97014;-74
2022/01/11 03:19:41;;;;;;;1999.90;999.90;;;;;;;-0.88;61.27;102790.31;4966272;28;96805;-72
2022/01/11 03:22:10;;;;;;;1999.90;999.90;;;;;;;-0.89;61.48;102798.94;4986878;28;98845;-73
2022/01/11 03:24:38;;;;;;;1999.90;999.90;;;;;;;-0.85;61.25;102801.06;4965800;28;100267;-73
2022/01/11 03:27:07;;;;;;;1999.90;999.90;;;;;;;-0.87;61.55;102802.59;4986370;28;96807;-72
2022/01/11 03:29:37;;;;;;;1999.90;999.90;;;;;;;-0.91;61.63;102800.47;4987313;28;97517;-72
2022/01/11 03:32:06;;;;;;;1999.90;999.90;;;;;;;-0.91;61.58;102799.53;4990908;28;97733;-72
2022/01/11 03:34:55;;;;;;;1999.90;999.90;;;;;;;-0.91;61.25;102810.00;4973911;28;99763;-73
2022/01/11 03:37:25;;;;;;;1999.90;999.90;;;;;;;-0.88;61.60;102812.91;4987656;28;96816;-72
2022/01/11 03:39:53;;;;;;;1999.90;999.90;;;;;;;-0.87;61.45;102817.38;4982838;28;96943;-72
2022/01/11 03:42:21;;;;;;;1999.90;999.90;;;;;;;-0.89;60.96;102819.84;4986583;28;99111;-71
2022/01/11 03:44:50;;;;;;;1999.90;999.90;;;;;;;-0.89;61.20;102818.91;4972389;28;100094;-73
2022/01/11 03:47:19;;;;;;;1999.90;999.90;;;;;;;-0.94;60.91;102818.44;4973553;28;96843;-73
2022/01/11 03:49:46;;;;;;;1999.90;999.90;;;;;;;-0.94;60.96;102825.38;4990777;28;96950;-73
2022/01/11 03:52:14;;;;;;;1999.90;999.90;;;;;;;-0.94;61.53;102822.78;4969677;28;98357;-73
2022/01/11 03:55:01;;;;;;;1999.90;999.90;;;;;;;-0.93;61.02;102821.97;4989098;28;99332;-73
2022/01/11 03:57:35;;;;;;;1999.90;999.90;;;;;;;-0.92;61.36;102826.44;4989798;28;96748;-73
2022/01/11 04:00:07;;;;;;;1999.90;999.90;;;;;;;-0.90;61.05;102823.22;4987398;28;96793;-73
2022/01/11 04:02:40;;;;;;;1999.90;999.90;;;;;;;-0.88;61.50;102829.50;4987555;28;99455;-73
2022/01/11 04:05:12;;;;;;;1999.90;999.90;;;;;;;-0.85;61.03;102826.28;4971684;28;100301;-72
2022/01/11 04:07:41;;;;;;;1999.90;999.90;;;;;;;-0.85;61.47;102831.53;4984374;28;97445;-72
2022/01/11 04:10:12;;;;;;;1999.90;999.90;;;;;;;-0.87;61.35;102839.19;4971835;28;97340;-72
2022/01/11 04:12:40;;;;;;;1999.90;999.90;;;;;;;-0.86;61.34;102834.88;5002947;28;97989;-72
2022/01/11 04:15:10;;;;;;;1999.90;999.90;;;;;;;-0.87;61.66;102838.28;5000932;28;98536;-73
2022/01/11 04:17:37;;;;;;;1999.90;999.90;;;;;;;-0.90;61.64;102838.88;4976159;28;97047;-72
2022/01/11 04:20:06;;;;;;;1999.90;999.90;;;;;;;-0.88;61.83;102846.88;4988723;28;98770;-73
2022/01/11 04:22:34;;;;;;;1999.90;999.90;;;;;;;-0.87;61.43;102841.78;4972091;28;100061;-72
2022/01/11 04:25:02;;;;;;;1999.90;999.90;;;;;;;-0.86;61.79;102841.03;4990216;28;99192;-73
2022/01/11 04:27:32;;;;;;;1999.90;999.90;;;;;;;-0.83;61.33;102835.22;5005769;28;97065;-72
2022/01/11 04:30:04;;;;;;;1999.90;999.90;;;;;;;-0.82;61.27;102839.66;4987462;28;98059;-73
2022/01/11 04:32:32;;;;;;;1999.90;999.90;;;;;;;-0.83;61.16;102841.34;4989932;28;98499;-72
2022/01/11 04:35:00;;;;;;;1999.90;999.90;;;;;;;-0.83;61.71;102841.34;4968498;28;101391;-73
2022/01/11 04:37:28;;;;;;;1999.90;999.90;;;;;;;-0.82;61.24;102848.44;4987647;28;97139;-72
2022/01/11 04:39:56;;;;;;;1999.90;999.90;;;;;;;-0.82;61.54;102844.88;4990386;28;96765;-73
2022/01/11 04:42:24;;;;;;;1999.90;999.90;;;;;;;-0.81;61.17;102850.25;4973205;28;97781;-73
2022/01/11 04:44:53;;;;;;;1999.90;999.90;;;;;;;-0.81;61.33;102851.94;4989799;28;97666;-73
2022/01/11 04:47:20;;;;;;;1999.90;999.90;;;;;;;-0.81;61.69;102849.31;4990325;28;96734;-73
2022/01/11 04:49:48;;;;;;;1999.90;999.90;;;;;;;-0.82;61.71;102850.09;4988349;28;98338;-74
2022/01/11 04:52:16;;;;;;;1999.90;999.90;;;;;;;-0.84;61.59;102851.66;4989084;28;99219;-73
2022/01/11 04:54:44;;;;;;;1999.90;999.90;;;;;;;-0.82;61.61;102852.72;4970631;28;98727;-73
2022/01/11 04:57:28;;;;;;;1999.90;999.90;;;;;;;-0.79;61.70;102844.28;4986117;28;96868;-74
2022/01/11 04:59:57;;;;;;;1999.90;999.90;;;;;;;-0.82;61.46;102853.66;4989720;28;96865;-73
2022/01/11 05:02:26;;;;;;;1999.90;999.90;;;;;;;-0.83;61.80;102857.03;4983520;28;97560;-75
2022/01/11 05:04:54;;;;;;;1999.90;999.90;;;;;;;-0.82;61.61;102852.72;4969681;28;99870;-74
2022/01/11 05:07:22;;;;;;;1999.90;999.90;;;;;;;-0.81;61.38;102855.47;4971334;28;97365;-72
2022/01/11 05:09:51;;;;;;;1999.90;999.90;;;;;;;-0.78;61.60;102853.94;4973158;28;97506;-74
2022/01/11 05:12:19;;;;;;;1999.90;999.90;;;;;;;-0.78;61.45;102860.09;4986877;28;98657;-74
2022/01/11 05:14:46;;;;;;;1999.90;999.90;;;;;;;-0.80;61.60;102853.81;4984303;28;100245;-74
2022/01/11 05:17:16;;;;;;;1999.90;999.90;;;;;;;-0.82;61.95;102858.88;4972568;28;96883;-73
2022/01/11 05:19:44;;;;;;;1999.90;999.90;;;;;;;-0.80;61.57;102851.19;4986298;28;97180;-73
2022/01/11 05:22:12;;;;;;;1999.90;999.90;;;;;;;-0.80;61.45;102861.63;4971100;28;100401;-74
2022/01/11 05:24:39;;;;;;;1999.90;999.90;;;;;;;-0.81;61.33;102846.72;4968197;28;99321;-74
2022/01/11 05:27:08;;;;;;;1999.90;999.90;;;;;;;-0.81;61.57;102860.72;4989967;28;96647;-75
2022/01/11 05:29:35;;;;;;;1999.90;999.90;;;;;;;-0.79;61.29;102859.97;4987423;28;96864;-74
2022/01/11 05:32:04;;;;;;;1999.90;999.90;;;;;;;-0.80;61.78;102861.63;4986509;28;97580;-73
2022/01/11 05:34:33;;;;;;;1999.90;999.90;;;;;;;-0.79;61.54;102863.47;4986393;28;97487;-74
2022/01/11 05:37:01;;;;;;;1999.90;999.90;;;;;;;-0.78;61.64;102869.63;5004731;28;97575;-72
2022/01/11 05:39:29;;;;;;;1999.90;999.90;;;;;;;-0.79;61.97;102865.19;5000161;28;96763;-72
2022/01/11 05:41:59;;;;;;;1999.90;999.90;;;;;;;-0.81;61.90;102871.16;4994062;28;97749;-72
2022/01/11 05:44:27;;;;;;;1999.90;999.90;;;;;;;-0.79;61.86;102873.03;4975515;28;100506;-73
2022/01/11 05:46:55;;;;;;;1999.90;999.90;;;;;;;-0.75;61.59;102878.69;5001265;28;97217;-72
2022/01/11 05:49:23;;;;;;;1999.90;999.90;;;;;;;-0.74;61.35;102885.78;4992116;28;97267;-72
2022/01/11 05:51:52;;;;;;;1999.90;999.90;;;;;;;-0.76;61.67;102878.56;4999935;28;98701;-72
2022/01/11 05:54:20;;;;;;;1999.90;999.90;;;;;;;-0.73;61.38;102882.38;4973168;28;99291;-71
2022/01/11 05:56:50;;;;;;;1999.90;999.90;;;;;;;-0.74;61.67;102883.16;5005780;28;98734;-72
2022/01/11 05:59:17;;;;;;;1999.90;999.90;;;;;;;-0.79;61.84;102881.75;4985732;28;97186;-71
2022/01/11 06:01:45;;;;;;;1999.90;999.90;;;;;;;-0.82;61.83;102881.47;4968630;28;103223;-72
2022/01/11 06:04:13;;;;;;;1999.90;999.90;;;;;;;-0.83;61.69;102883.16;4988384;28;99342;-73
2022/01/11 06:06:41;;;;;;;1999.90;999.90;;;;;;;-0.83;62.05;102880.53;4989276;28;97347;-73
2022/01/11 06:09:10;;;;;;;1999.90;999.90;;;;;;;-0.83;61.95;102883.16;4987626;28;96972;-73
2022/01/11 06:11:38;;;;;;;1999.90;999.90;;;;;;;-0.83;61.93;102887.47;4970226;28;99683;-72
2022/01/11 06:14:07;;;;;;;1999.90;999.90;;;;;;;-0.85;61.81;102886.41;4971566;28;100790;-73
2022/01/11 06:16:35;;;;;;;1999.90;999.90;;;;;;;-0.87;61.76;102891.44;5002357;28;97172;-71
2022/01/11 06:19:03;;;;;;;1999.90;999.90;;;;;;;-0.86;61.95;102895.00;4985205;28;98425;-71
2022/01/11 06:21:43;;;;;;;1999.90;999.90;;;;;;;-0.86;61.95;102897.59;4981104;28;99259;-73
2022/01/11 06:24:12;;;;;;;1999.90;999.90;;;;;;;-0.86;61.70;102900.22;4982630;28;100887;-72
2022/01/11 06:26:41;;;;;;;1999.90;999.90;;;;;;;-0.86;62.16;102903.78;4985751;28;97013;-73
2022/01/11 06:29:11;;;;;;;1999.90;999.90;;;;;;;-0.86;61.90;102902.84;4972361;28;96864;-73
2022/01/11 06:31:39;;;;;;;1999.90;999.90;;;;;;;-0.88;61.83;102904.38;4980409;28;98563;-73
2022/01/11 06:34:07;;;;;;;1999.90;999.90;;;;;;;-0.87;61.89;102911.47;4961736;28;99060;-73
2022/01/11 06:36:35;;;;;;;1999.90;999.90;;;;;;;-0.87;62.15;102907.13;4962986;28;97206;-73
2022/01/11 06:39:04;;;;;;;1999.90;999.90;;;;;;;-0.87;61.83;102908.84;4995127;28;98264;-73
2022/01/11 06:41:36;;;;;;;1999.90;999.90;;;;;;;-0.91;61.98;102915.47;4978341;28;99617;-73
2022/01/11 06:44:09;;;;;;;1999.90;999.90;;;;;;;-0.92;61.87;102918.81;4962700;28;100513;-72
2022/01/11 06:46:38;;;;;;;1999.90;999.90;;;;;;;-0.88;62.01;102915.75;4964344;28;99431;-72
2022/01/11 06:49:06;;;;;;;1999.90;999.90;;;;;;;-0.87;62.15;102921.91;4984467;28;97203;-72
2022/01/11 06:51:35;;;;;;;1999.90;999.90;;;;;;;-0.92;62.10;102924.03;4980096;28;98466;-74
2022/01/11 06:54:02;;;;;;;1999.90;999.90;;;;;;;-0.93;61.82;102927.44;4981875;28;98665;-71
2022/01/11 06:56:30;;;;;;;1999.90;999.90;;;;;;;-0.93;62.29;102934.34;4985504;28;97078;-71
2022/01/11 06:59:07;;;;;;;1999.90;999.90;;;;;;;-0.94;62.01;102936.03;4976638;28;98418;-72
2022/01/11 07:01:36;;;;;;;1999.90;999.90;;;;;;;-0.94;62.54;102938.66;4980306;28;98971;-73
2022/01/11 07:04:11;;;;;;;1999.90;999.90;;;;;;;-0.93;62.47;102939.56;4983442;28;99809;-72
2022/01/11 07:06:49;;;;;;;1999.90;999.90;;;;;;;-0.94;62.10;102945.59;4981855;28;96824;-72
2022/01/11 07:09:17;;;;;;;1999.90;999.90;;;;;;;-0.95;62.03;102947.28;4983057;28;97333;-72
2022/01/11 07:11:45;;;;;;;1999.90;999.90;;;;;;;-0.95;62.36;102949.88;4987179;28;97702;-72
2022/01/11 07:14:15;;;;;;;1999.90;999.90;;;;;;;-0.95;62.45;102960.34;4981412;28;97727;-71
2022/01/11 07:16:48;;;;;;;1999.90;999.90;;;;;;;-0.94;62.34;102964.78;4968599;28;98573;-71
2022/01/11 07:19:17;;;;;;;1999.90;999.90;;;;;;;-0.96;62.20;102965.41;4981497;28;97624;-71
2022/01/11 07:21:46;;;;;;;1999.90;999.90;;;;;;;-0.96;62.48;102973.25;4986504;28;97576;-72
2022/01/11 07:24:16;;;;;;;1999.90;999.90;;;;;;;-0.94;62.38;102976.94;5006458;28;98061;-72
2022/01/11 07:26:44;;;;;;;1999.90;999.90;;;;;;;-0.92;62.46;102980.59;4994640;28;96850;-73
2022/01/11 07:29:12;;;;;;;1999.90;999.90;;;;;;;-0.92;62.40;102980.59;4973470;28;96845;-72
2022/01/11 07:31:42;;;;;;;1999.90;999.90;;;;;;;-0.91;62.60;102983.41;4991160;28;101805;-72
2022/01/11 07:34:13;;;;;;;1999.90;999.90;;;;;;;-0.90;62.10;102990.47;4975083;28;98801;-73
2022/01/11 07:36:42;;;;;;;1999.90;999.90;;;;;;;-0.89;62.41;102988.78;4974862;28;96791;-73
2022/01/11 07:39:12;;;;;;;1999.90;999.90;;;;;;;-0.89;62.01;102991.41;4990896;28;96939;-72
2022/01/11 07:41:41;;;;;;;1999.90;999.90;;;;;;;-0.88;62.24;102988.94;4988229;28;101562;-73
2022/01/11 07:44:28;;;;;;;1999.90;999.90;;;;;;;-0.89;62.01;102991.41;4984782;28;101014;-72
2022/01/11 07:46:58;;;;;;;1999.90;999.90;;;;;;;-0.92;62.19;102999.84;4984768;28;97444;-71
2022/01/11 07:49:32;;;;;;;1999.90;999.90;;;;;;;-0.94;62.11;102993.53;4989278;28;97129;-73
2022/01/11 07:52:00;;;;;;;1999.90;999.90;;;;;;;-0.92;62.62;102991.06;4970476;28;100165;-73
2022/01/11 07:54:28;;;;;;;1999.90;999.90;;;;;;;-0.92;62.13;102997.22;4982176;28;98610;-73
2022/01/11 07:56:57;;;;;;;1999.90;999.90;;;;;;;-0.91;62.17;102998.16;4991593;28;97418;-73
2022/01/11 07:59:26;;;;;;;1999.90;999.90;;;;;;;-0.89;62.69;103005.41;4976294;28;96938;-73
2022/01/11 08:02:16;;;;;;;1999.90;999.90;;;;;;;-0.91;62.75;103003.38;4981752;28;100944;-72
2022/01/11 08:04:45;;;;;;;1999.90;999.90;;;;;;;-0.89;62.36;103007.06;4973113;28;100597;-73
2022/01/11 08:07:13;;;;;;;1999.90;999.90;;;;;;;-0.89;62.36;103012.31;4974030;28;96978;-73
2022/01/11 08:09:46;;;;;;;1999.90;999.90;;;;;;;-0.89;62.52;103015.84;4971289;28;97928;-72
2022/01/11 08:12:14;;;;;;;1999.90;999.90;;;;;;;-0.88;62.46;103019.34;4966332;28;97765;-73
2022/01/11 08:14:42;;;;;;;1999.90;999.90;;;;;;;-0.89;62.54;103017.53;4969387;28;99177;-73
2022/01/11 08:17:11;;;;;;;1999.90;999.90;;;;;;;-0.89;62.31;103023.69;4986788;28;98488;-73
2022/01/11 08:19:41;;;;;;;1999.90;999.90;;;;;;;-0.91;62.77;103016.44;4989840;28;96841;-72
2022/01/11 08:22:09;;;;;;;1999.90;999.90;;;;;;;-0.89;62.81;103014.91;4986192;28;98198;-73
2022/01/11 08:24:45;;;;;;;1999.90;999.90;;;;;;;-0.89;62.49;103015.84;4989882;28;99981;-73
2022/01/11 08:27:14;;;;;;;1999.90;999.90;;;;;;;-0.88;62.56;103016.75;4986414;28;97392;-73
2022/01/11 08:29:43;;;;;;;1999.90;999.90;;;;;;;-0.88;62.66;103006.28;4989646;28;97129;-73
2022/01/11 08:32:12;;;;;;;1999.90;999.90;;;;;;;-0.86;62.33;103012.59;4988611;28;98267;-73
2022/01/11 08:34:42;;;;;;;1999.90;999.90;;;;;;;-0.87;62.49;103018.63;4987526;28;97597;-73
2022/01/11 08:37:10;;;;;;;1999.90;999.90;;;;;;;-0.89;62.70;103014.91;4989888;28;96860;-71
2022/01/11 08:39:39;;;;;;;1999.90;999.90;;;;;;;-0.89;62.77;103020.13;4990779;28;96767;-72
2022/01/11 08:42:12;;;;;;;1999.90;999.90;;;;;;;-0.89;62.87;103012.31;4988871;28;96670;-72
2022/01/11 08:44:40;;;;;;;1999.90;999.90;;;;;;;-0.89;62.59;103014.91;4990687;28;98167;-73
2022/01/11 08:47:08;;;;;;;1999.90;999.90;;;;;;;-0.87;62.81;103016.00;4996305;28;97112;-73
2022/01/11 08:49:41;;;;;;;1999.90;999.90;;;;;;;-0.88;62.47;103017.69;4976680;28;96799;-73
2022/01/11 08:52:10;;;;;;;1999.90;999.90;;;;;;;-0.87;62.56;103031.69;4990401;28;98855;-73
2022/01/11 08:54:39;;;;;;;1999.90;999.90;;;;;;;-0.86;62.52;103028.28;4987905;28;100598;-73
2022/01/11 08:57:09;;;;;;;1999.90;999.90;;;;;;;-0.87;62.56;103029.97;4986347;28;98023;-74
2022/01/11 08:59:37;;;;;;;1999.90;999.90;;;;;;;-0.88;62.47;103028.13;4969415;28;97016;-72
2022/01/11 09:02:08;;;;;;;1999.90;999.90;;;;;;;-0.89;62.65;103034.16;4968404;28;99484;-73
2022/01/11 09:04:39;;;;;;;1999.90;999.90;;;;;;;-0.97;62.62;103035.03;5000975;28;98984;-73
2022/01/11 09:07:21;;;;;;;1999.90;999.90;;;;;;;-1.05;62.78;103035.03;4967630;28;96942;-72
2022/01/11 09:09:53;;;;;;;1999.90;999.90;;;;;;;-1.13;63.29;103030.69;4989863;28;97172;-72
2022/01/11 09:12:21;;;;;;;1999.90;999.90;;;;;;;-1.16;62.89;103035.59;5005456;28;98983;-72
2022/01/11 09:14:50;;;;;;;1999.90;999.90;;;;;;;-1.19;63.20;103035.25;4995314;28;99116;-73
2022/01/11 09:17:20;;;;;;;1999.90;999.90;;;;;;;-1.19;63.11;103035.25;4980492;28;97463;-72
2022/01/11 09:19:48;;;;;;;1999.90;999.90;;;;;;;-1.19;63.24;103035.25;4982534;28;96762;-72
2022/01/11 09:22:21;;;;;;;1999.90;999.90;;;;;;;-1.23;63.00;103035.72;5001069;28;97848;-73
2022/01/11 09:24:51;;;;;;;1999.90;999.90;;;;;;;-1.24;63.39;103036.47;4995502;28;98838;-74
2022/01/11 09:27:23;;;;;;;1999.90;999.90;;;;;;;-1.26;63.23;103038.94;4975039;28;96982;-74
2022/01/11 09:29:51;;;;;;;1999.90;999.90;;;;;;;-1.27;63.41;103041.38;4987869;28;97431;-71
2022/01/11 09:32:20;;;;;;;1999.90;999.90;;;;;;;-1.26;63.00;103038.94;4971934;28;98041;-72
2022/01/11 09:34:50;;;;;;;1999.90;999.90;;;;;;;-1.25;62.76;103042.47;5002296;28;98232;-72
2022/01/11 09:37:25;;;;;;;1999.90;999.90;;;;;;;-1.24;62.84;103053.06;4985303;28;96943;-73
2022/01/11 09:39:53;;;;;;;1999.90;999.90;;;;;;;-1.26;63.22;103053.66;4968657;28;96858;-71
2022/01/11 09:42:25;;;;;;;1999.90;999.90;;;;;;;-1.26;62.62;103058.88;4970367;28;99326;-73
2022/01/11 09:44:54;;;;;;;1999.90;999.90;;;;;;;-1.28;63.15;103060.41;4997863;28;97734;-73
2022/01/11 09:47:22;;;;;;;1999.90;999.90;;;;;;;-1.32;63.31;103053.06;4983171;28;98007;-73
2022/01/11 09:49:52;;;;;;;1999.90;999.90;;;;;;;-1.34;63.04;103065.91;4959788;28;97161;-72
2022/01/11 09:52:20;;;;;;;1999.90;999.90;;;;;;;-1.35;63.33;103063.16;4986699;28;97743;-73
2022/01/11 09:54:49;;;;;;;1999.90;999.90;;;;;;;-1.37;62.85;103064.69;4985639;28;98646;-72
2022/01/11 09:57:20;;;;;;;1999.90;999.90;;;;;;;-1.45;62.76;103061.25;4983060;28;98308;-73
2022/01/11 10:00:00;;;;;;;1999.90;999.90;;;;;;;-1.48;62.96;103057.41;5001128;28;97141;-73
2022/01/11 10:02:44;;;;;;;1999.90;999.90;;;;;;;-1.52;63.04;103064.00;4985760;28;97836;-71
2022/01/11 10:05:27;;;;;;;1999.90;999.90;;;;;;;-1.55;63.37;103067.97;4967402;28;99174;-73
2022/01/11 10:07:59;;;;;;;1999.90;999.90;;;;;;;-1.62;63.44;103073.31;4988405;28;96845;-72
2022/01/11 10:10:28;;;;;;;1999.90;999.90;;;;;;;-1.70;63.80;103069.88;4988712;28;96955;-72
2022/01/11 10:13:04;;;;;;;1999.90;999.90;;;;;;;-1.73;63.50;103066.03;4971663;28;99366;-73
2022/01/11 10:15:35;;;;;;;1999.90;999.90;;;;;;;-1.75;64.01;103067.53;4983495;28;99714;-72
2022/01/11 10:18:11;;;;;;;1999.90;999.90;;;;;;;-1.73;63.12;103071.22;4987610;28;99797;-71
2022/01/11 10:20:39;;;;;;;1999.90;999.90;;;;;;;-1.70;63.16;103064.66;4966410;28;96762;-73
2022/01/11 10:23:33;;;;;;;1999.90;999.90;;;;;;;-1.74;63.35;103070.31;4988267;28;98905;-72
2022/01/11 10:26:03;;;;;;;1999.90;999.90;;;;;;;-1.78;63.89;103080.28;4988171;28;98205;-71
2022/01/11 10:28:35;;;;;;;1999.90;999.90;;;;;;;-1.76;63.53;103070.91;4989959;28;97034;-70
2022/01/11 10:31:04;;;;;;;1999.90;999.90;;;;;;;-1.78;63.25;103069.84;4993370;28;97335;-71
2022/01/11 10:33:36;;;;;;;1999.90;999.90;;;;;;;-1.79;63.20;103071.50;4990419;28;97832;-70
2022/01/11 10:36:06;;;;;;;1999.90;999.90;;;;;;;-1.86;63.83;103075.16;4989990;28;102010;-70
2022/01/11 10:38:43;;;;;;;1999.90;999.90;;;;;;;-1.89;63.30;103069.59;4982097;28;96934;-70
2022/01/11 10:41:44;;;;;;;1999.90;999.90;;;;;;;-1.97;63.17;103075.69;4971528;28;97042;-70
2022/01/11 10:44:46;;;;;;;1999.90;999.90;;;;;;;-1.96;63.79;103074.91;4971756;28;99272;-70
2022/01/11 10:47:24;;;;;;;1999.90;999.90;;;;;;;-1.95;63.80;103078.47;4980874;28;98000;-73
2022/01/11 10:49:54;;;;;;;1999.90;999.90;;;;;;;-1.95;63.83;103076.78;4990210;28;97432;-70
2022/01/11 10:52:25;;;;;;;1999.90;999.90;;;;;;;-1.95;63.34;103079.41;4972079;28;97007;-70
2022/01/11 10:55:05;;;;;;;1999.90;999.90;;;;;;;-1.95;63.33;103082.00;4972070;28;101136;-70
2022/01/11 10:57:36;;;;;;;1999.90;999.90;;;;;;;-1.86;63.21;103076.84;4984910;28;96855;-70
2022/01/11 11:00:19;;;;;;;1999.90;999.90;;;;;;;-1.93;62.96;103084.78;5003438;28;97068;-70
2022/01/11 11:02:50;;;;;;;1999.90;999.90;;;;;;;-1.91;63.12;103080.66;4967561;28;96948;-70
2022/01/11 11:05:28;;;;;;;1999.90;999.90;;;;;;;-1.92;63.87;103084.94;5000519;28;98928;-71